Alburgh, Vermont
Current Conditions -  °F | °C
As of 4:55 PM on Friday 19 Dec 2014 (Local Time) from KFSO Reporting Station
Overcast Overcast  
Wind Chill: 22°   Ceiling: 1800
Heat Index: 22°   Visibility: 10mi
Dew Point: 17°   Wind: 0mph
Humidity: 80%   Direction: NA
Pressure: 30.14"   Gusts: NA
Location:  44.98°N, 73.3°W
Report Text: KFSO 192055Z AUTO 00000KT 10SM OVC018 M05/M08 A3014 RMK AO2 T10531082
Loading
Personal Weather Stations






























Interactive Weather Map New forecast layout! Learn more

10-Day Weather Forecast

Advertisements
Track Severe Weather on mobile